createdAt,value
2017-03-16T00:00:44.158Z,75.59
2017-03-16T00:01:44.148Z,75.78
2017-03-16T00:02:44.135Z,75.68
2017-03-16T00:03:44.122Z,75.68
2017-03-16T00:04:44.110Z,75.49
2017-03-16T00:05:44.098Z,75.68
2017-03-16T00:06:44.086Z,75.59
2017-03-16T00:07:44.073Z,76.25
2017-03-16T00:08:44.062Z,76.44
2017-03-16T00:09:44.050Z,75.96
2017-03-16T00:10:44.040Z,76.15
2017-03-16T00:11:44.026Z,76.21
2017-03-16T00:12:44.014Z,76.15
2017-03-16T00:13:44.001Z,76.21
2017-03-16T00:14:43.992Z,76.31
2017-03-16T00:15:43.979Z,76.03
2017-03-16T00:16:43.965Z,76.31
2017-03-16T00:17:43.952Z,76.31
2017-03-16T00:18:43.941Z,76.4
2017-03-16T00:19:43.930Z,76.12
2017-03-16T00:20:43.917Z,76.21
2017-03-16T00:21:43.904Z,76.31
2017-03-16T00:22:43.892Z,76.12
2017-03-16T00:23:43.880Z,76.21
2017-03-16T00:24:43.868Z,76.31
2017-03-16T00:25:43.856Z,76.4
2017-03-16T00:26:43.845Z,76.59
2017-03-16T00:27:43.831Z,76.59
2017-03-16T00:28:43.818Z,76.59
2017-03-16T00:29:43.807Z,76.87
2017-03-16T00:30:43.795Z,76.59
2017-03-16T00:31:43.783Z,76.97
2017-03-16T00:32:43.769Z,77.06
2017-03-16T00:33:43.771Z,77.25
2017-03-16T00:34:43.746Z,77.16
2017-03-16T00:35:43.733Z,76.97
2017-03-16T00:36:43.721Z,76.97
2017-03-16T00:37:43.708Z,76.78
2017-03-16T00:38:43.699Z,77.16
2017-03-16T00:39:43.685Z,77.06
2017-03-16T00:40:43.673Z,76.78
2017-03-16T00:41:43.661Z,76.78
2017-03-16T00:42:43.645Z,76.97
2017-03-16T00:43:43.634Z,76.78
2017-03-16T00:44:43.622Z,77.06
2017-03-16T00:45:43.307Z,77.73
2017-03-16T00:46:43.598Z,77.92
2017-03-16T00:47:43.586Z,77.35
2017-03-16T00:48:43.573Z,77.64
2017-03-16T00:49:43.562Z,77.45
2017-03-16T00:50:43.549Z,77.45
2017-03-16T00:51:43.538Z,77.64
2017-03-16T00:52:43.530Z,77.64
2017-03-16T00:53:43.511Z,77.16
2017-03-16T00:54:43.499Z,76.87
2017-03-16T00:55:43.489Z,76.82
2017-03-16T00:56:43.477Z,77.16
2017-03-16T00:57:43.462Z,77.06
2017-03-16T00:58:43.457Z,77.01
2017-03-16T00:59:43.442Z,77.29
2017-03-16T01:00:43.428Z,77.29
2017-03-16T01:01:43.416Z,77.06
2017-03-16T01:02:43.404Z,77.35
2017-03-16T01:03:43.391Z,77.54
2017-03-16T01:04:43.378Z,77.16
2017-03-16T01:05:43.366Z,77.25
2017-03-16T01:06:43.354Z,77.06
2017-03-16T01:07:43.345Z,76.78
2017-03-16T01:08:43.329Z,77.64
2017-03-16T01:09:43.318Z,77.35
2017-03-16T01:10:43.003Z,77.73
2017-03-16T01:11:43.296Z,78.02
2017-03-16T01:12:43.283Z,78.11
2017-03-16T01:13:42.965Z,77.83
2017-03-16T01:14:43.257Z,78.39
2017-03-16T01:15:43.244Z,78.02
2017-03-16T01:16:43.234Z,78.11
2017-03-16T01:17:43.220Z,78.3
2017-03-16T01:18:43.208Z,78.77
2017-03-16T01:19:43.194Z,78.39
2017-03-16T01:20:43.183Z,78.49
2017-03-16T01:21:42.867Z,78.39
2017-03-16T01:22:43.159Z,78.77
2017-03-16T01:23:43.145Z,79.34
2017-03-16T01:24:43.132Z,79.53
2017-03-16T01:25:43.122Z,79.3
2017-03-16T01:26:43.109Z,79.21
2017-03-16T01:27:43.095Z,79.49
2017-03-16T01:28:43.082Z,79.87
2017-03-16T01:29:43.070Z,79.87
2017-03-16T01:30:43.058Z,79.68
2017-03-16T01:31:43.045Z,80.53
2017-03-16T01:32:43.036Z,79.77
2017-03-16T01:33:43.019Z,80.06
2017-03-16T01:34:43.006Z,80.44
2017-03-16T01:35:42.995Z,80.25
2017-03-16T01:36:42.680Z,80.82
2017-03-16T01:37:42.970Z,80.15
2017-03-16T01:38:42.957Z,80.53
2017-03-16T01:39:42.943Z,80.63
2017-03-16T01:40:42.931Z,80.82
2017-03-16T01:41:42.919Z,80.25
2017-03-16T01:42:42.907Z,80.72
2017-03-16T01:43:42.892Z,80.82
2017-03-16T01:44:42.879Z,81.1
2017-03-16T01:45:42.866Z,80.63
2017-03-16T01:46:42.855Z,81.29
2017-03-16T01:47:42.840Z,81.29
2017-03-16T01:48:42.865Z,81.1
2017-03-16T01:49:42.815Z,81.48
2017-03-16T01:50:42.804Z,81.48
2017-03-16T01:51:42.790Z,81.29
2017-03-16T01:52:42.473Z,81.57
2017-03-16T01:53:42.461Z,81.57
2017-03-16T01:54:42.757Z,81.38
2017-03-16T01:55:42.738Z,82.33
2017-03-16T01:56:42.726Z,82.05
2017-03-16T01:57:42.712Z,82.33
2017-03-16T01:58:42.702Z,82.43
2017-03-16T01:59:42.687Z,82.62
2017-03-16T02:00:42.674Z,82.62
2017-03-16T02:01:42.660Z,82.67
2017-03-16T02:02:42.346Z,82.1
2017-03-16T02:03:42.641Z,82.67
2017-03-16T02:04:42.620Z,83.05
2017-03-16T02:05:42.608Z,83.43
2017-03-16T02:06:42.594Z,83.33
2017-03-16T02:07:42.581Z,83.14
2017-03-16T02:08:42.568Z,83.33
2017-03-16T02:09:42.555Z,83.05
2017-03-16T02:10:42.543Z,83.05
2017-03-16T02:11:42.529Z,83.62
2017-03-16T02:12:42.516Z,84
2017-03-16T02:13:42.201Z,83.9
2017-03-16T02:14:42.186Z,83.81
2017-03-16T02:15:42.476Z,83.9
2017-03-16T02:16:42.467Z,84
2017-03-16T02:17:42.449Z,84.09
2017-03-16T02:18:42.439Z,84.09
2017-03-16T02:19:42.424Z,84.56
2017-03-16T02:20:42.409Z,84.19
2017-03-16T02:21:42.397Z,84.47
2017-03-16T02:22:42.386Z,84.56
2017-03-16T02:23:42.370Z,84.47
2017-03-16T02:24:42.358Z,84.09
2017-03-16T02:25:42.344Z,84.38
2017-03-16T02:26:42.331Z,84.38
2017-03-16T02:27:42.319Z,84.66
2017-03-16T02:28:42.304Z,84.75
2017-03-16T02:29:42.292Z,84.66
2017-03-16T02:30:42.278Z,84.56
2017-03-16T02:31:42.267Z,84.38
2017-03-16T02:32:42.253Z,84.66
2017-03-16T02:33:42.238Z,85.04
2017-03-16T02:34:42.225Z,85.13
2017-03-16T02:35:42.211Z,84.94
2017-03-16T02:36:42.198Z,84.94
2017-03-16T02:37:42.185Z,85.61
2017-03-16T02:38:42.171Z,85.32
2017-03-16T02:39:42.158Z,85.13
2017-03-16T02:40:42.144Z,85.13
2017-03-16T02:41:42.132Z,85.13
2017-03-16T02:42:42.119Z,85.13
2017-03-16T02:43:42.108Z,85.55
2017-03-16T02:44:42.092Z,85.55
2017-03-16T02:45:42.078Z,85.55
2017-03-16T02:46:42.066Z,85.74
2017-03-16T02:47:42.051Z,85.55
2017-03-16T02:48:42.038Z,84.99
2017-03-16T02:49:42.027Z,85.46
2017-03-16T02:50:42.013Z,84.99
2017-03-16T02:51:42.002Z,85.08
2017-03-16T02:52:41.988Z,85.46
2017-03-16T02:53:41.976Z,85.17
2017-03-16T02:54:41.960Z,84.8
2017-03-16T02:55:41.948Z,84.61
2017-03-16T02:56:41.935Z,84.23
2017-03-16T02:57:41.921Z,84.04
2017-03-16T02:58:41.908Z,84.55
2017-03-16T02:59:41.894Z,84.36
2017-03-16T03:00:41.882Z,84.08
2017-03-16T03:01:41.566Z,83.98
2017-03-16T03:02:41.858Z,83.8
2017-03-16T03:03:41.844Z,83.98
2017-03-16T03:04:41.833Z,83.51
2017-03-16T03:05:41.820Z,83.42
2017-03-16T03:06:41.804Z,83.42
2017-03-16T03:07:41.792Z,82.85
2017-03-16T03:08:41.779Z,82.75
2017-03-16T03:09:41.769Z,82.56
2017-03-16T03:10:41.755Z,82.75
2017-03-16T03:11:41.742Z,82.66
2017-03-16T03:12:41.730Z,82.18
2017-03-16T03:13:41.718Z,81.85
2017-03-16T03:14:41.704Z,81.56
2017-03-16T03:15:41.692Z,82.04
2017-03-16T03:16:41.377Z,81.56
2017-03-16T03:17:41.668Z,80.99
2017-03-16T03:18:41.656Z,81.09
2017-03-16T03:19:41.642Z,81.47
2017-03-16T03:20:41.631Z,80.52
2017-03-16T03:21:41.619Z,80.33
2017-03-16T03:22:41.607Z,80.52
2017-03-16T03:23:41.594Z,80.52
2017-03-16T03:24:41.581Z,80.24
2017-03-16T03:25:41.569Z,80.04
2017-03-16T03:26:41.557Z,79.57
2017-03-16T03:27:41.546Z,79.85
2017-03-16T03:28:41.533Z,79.57
2017-03-16T03:29:41.523Z,79.47
2017-03-16T03:30:41.509Z,79
2017-03-16T03:31:41.499Z,79.38
2017-03-16T03:32:41.485Z,79.28
2017-03-16T03:33:41.476Z,79.28
2017-03-16T03:34:41.458Z,79.57
2017-03-16T03:35:41.449Z,79.19
2017-03-16T03:36:41.438Z,79.28
2017-03-16T03:37:41.426Z,79.47
2017-03-16T03:38:41.411Z,80.24
2017-03-16T03:39:41.400Z,79.66
2017-03-16T03:40:41.389Z,79.76
2017-03-16T03:41:41.376Z,79.57
2017-03-16T03:42:41.364Z,80.29
2017-03-16T03:43:41.352Z,80.14
2017-03-16T03:44:41.344Z,80.38
2017-03-16T03:45:41.328Z,80.04
2017-03-16T03:46:41.014Z,80.67
2017-03-16T03:47:41.304Z,80.67
2017-03-16T03:48:41.292Z,80.38
2017-03-16T03:49:41.279Z,80.38
2017-03-16T03:50:41.267Z,80.86
2017-03-16T03:51:41.254Z,81.05
2017-03-16T03:52:41.250Z,80.76
2017-03-16T03:53:41.230Z,81.24
2017-03-16T03:54:41.219Z,80.76
2017-03-16T03:55:41.205Z,81.33
2017-03-16T03:56:41.193Z,81.05
2017-03-16T03:57:41.180Z,80.95
2017-03-16T03:58:41.170Z,81.24
2017-03-16T03:59:41.156Z,81.24
2017-03-16T04:00:41.143Z,81.9
2017-03-16T04:01:41.130Z,81.62
2017-03-16T04:02:41.119Z,81.62
2017-03-16T04:03:41.104Z,81.52
2017-03-16T04:04:41.093Z,82.18
2017-03-16T04:05:41.081Z,81.81
2017-03-16T04:06:41.069Z,82.66
2017-03-16T04:07:41.056Z,82.85
2017-03-16T04:08:41.046Z,82.56
2017-03-16T04:09:41.031Z,82.75
2017-03-16T04:10:41.019Z,82.94
2017-03-16T04:11:41.010Z,83.42
2017-03-16T04:12:40.994Z,83.18
2017-03-16T04:13:40.984Z,83.56
2017-03-16T04:14:40.969Z,83.32
2017-03-16T04:15:40.957Z,84.13
2017-03-16T04:16:40.642Z,83.8
2017-03-16T04:17:40.931Z,83.89
2017-03-16T04:18:40.918Z,83.89
2017-03-16T04:19:40.907Z,83.98
2017-03-16T04:20:40.895Z,84.17
2017-03-16T04:21:40.881Z,83.7
2017-03-16T04:22:40.867Z,84.27
2017-03-16T04:23:40.855Z,83.7
2017-03-16T04:24:40.843Z,84.08
2017-03-16T04:25:40.829Z,83.8
2017-03-16T04:26:40.817Z,83.61
2017-03-16T04:27:40.805Z,83.98
2017-03-16T04:28:40.791Z,84.08
2017-03-16T04:29:40.779Z,84.08
2017-03-16T04:30:40.767Z,83.42
2017-03-16T04:31:40.754Z,83.23
2017-03-16T04:32:40.742Z,83.32
2017-03-16T04:33:40.732Z,83.23
2017-03-16T04:34:40.967Z,83.23
2017-03-16T04:35:40.706Z,83.23
2017-03-16T04:36:40.691Z,83.51
2017-03-16T04:37:40.376Z,83.32
2017-03-16T04:38:40.665Z,83.32
2017-03-16T04:39:40.653Z,83.51
2017-03-16T04:40:40.641Z,83.32
2017-03-16T04:41:40.627Z,83.61
2017-03-16T04:42:40.311Z,83.04
2017-03-16T04:43:40.602Z,83.85
2017-03-16T04:44:40.589Z,83.75
2017-03-16T04:45:40.577Z,83.56
2017-03-16T04:46:40.569Z,83.47
2017-03-16T04:47:40.555Z,83.47
2017-03-16T04:48:40.540Z,83.94
2017-03-16T04:49:40.526Z,84.13
2017-03-16T04:50:40.514Z,84.13
2017-03-16T04:51:40.501Z,84.04
2017-03-16T04:52:40.488Z,84.32
2017-03-16T04:53:40.477Z,84.51
2017-03-16T04:54:40.463Z,83.94
2017-03-16T04:55:40.450Z,84.42
2017-03-16T04:56:40.440Z,84.32
2017-03-16T04:57:40.424Z,84.23
2017-03-16T04:58:40.413Z,84.51
2017-03-16T04:59:40.399Z,84.8
2017-03-16T05:00:40.387Z,84.51
2017-03-16T05:01:40.375Z,85.08
2017-03-16T05:02:40.361Z,84.89
2017-03-16T05:03:40.348Z,85.08
2017-03-16T05:04:40.342Z,85.46
2017-03-16T05:05:40.320Z,85.46
2017-03-16T05:06:40.308Z,85.46
2017-03-16T05:07:40.020Z,85.55
2017-03-16T05:08:40.286Z,85.74
2017-03-16T05:09:39.966Z,85.65
2017-03-16T05:10:40.258Z,86.41
2017-03-16T05:11:40.242Z,85.93
2017-03-16T05:12:40.231Z,86.12
2017-03-16T05:13:40.218Z,86.22
2017-03-16T05:14:39.903Z,86.31
2017-03-16T05:15:40.193Z,86.41
2017-03-16T05:16:39.874Z,86.98
2017-03-16T05:17:40.168Z,86.5
2017-03-16T05:18:40.153Z,86.5
2017-03-16T05:19:40.137Z,86.6
2017-03-16T05:20:40.123Z,86.88
2017-03-16T05:21:40.110Z,86.98
2017-03-16T05:22:40.099Z,87.07
2017-03-16T05:23:40.088Z,86.79
2017-03-16T05:24:39.772Z,86.93
2017-03-16T05:25:40.059Z,87.12
2017-03-16T05:26:40.045Z,86.79
2017-03-16T05:27:39.731Z,87.45
2017-03-16T05:28:40.020Z,86.98
2017-03-16T05:29:40.006Z,86.93
2017-03-16T05:30:39.993Z,87.21
2017-03-16T05:31:39.979Z,87.4
2017-03-16T05:32:39.967Z,87.69
2017-03-16T05:33:39.956Z,87.45
2017-03-16T05:34:39.949Z,87.31
2017-03-16T05:35:39.927Z,87.21
2017-03-16T05:36:39.915Z,87.21
2017-03-16T05:37:39.910Z,87.45
2017-03-16T05:38:39.892Z,87.35
2017-03-16T05:39:39.873Z,87.35
2017-03-16T05:40:39.558Z,87.26
2017-03-16T05:41:39.847Z,87.16
2017-03-16T05:42:39.835Z,87.45
2017-03-16T05:43:39.822Z,87.26
2017-03-16T05:44:39.808Z,87.26
2017-03-16T05:45:39.795Z,87.07
2017-03-16T05:46:39.781Z,87.45
2017-03-16T05:47:39.770Z,87.54
2017-03-16T05:48:39.456Z,87.73
2017-03-16T05:49:39.441Z,87.73
2017-03-16T05:50:39.426Z,87.83
2017-03-16T05:51:39.717Z,87.16
2017-03-16T05:52:39.706Z,87.35
2017-03-16T05:53:39.692Z,87.73
2017-03-16T05:54:39.678Z,87.16
2017-03-16T05:55:39.665Z,86.88
2017-03-16T05:56:39.652Z,86.79
2017-03-16T05:57:39.641Z,86.5
2017-03-16T05:58:39.632Z,86.5
2017-03-16T05:59:39.614Z,86.79
2017-03-16T06:00:39.601Z,86.22
2017-03-16T06:01:39.588Z,86.22
2017-03-16T06:02:39.577Z,85.97
2017-03-16T06:03:39.564Z,85.97
2017-03-16T06:04:39.551Z,86.16
2017-03-16T06:05:39.538Z,85.78
2017-03-16T06:06:39.524Z,85.88
2017-03-16T06:07:39.514Z,85.69
2017-03-16T06:08:39.502Z,85.41
2017-03-16T06:09:39.489Z,85.22
2017-03-16T06:10:39.476Z,84.94
2017-03-16T06:11:39.465Z,85.13
2017-03-16T06:12:39.453Z,84.74
2017-03-16T06:13:39.443Z,84.65
2017-03-16T06:14:39.427Z,84.94
2017-03-16T06:15:39.414Z,84.65
2017-03-16T06:16:39.097Z,84.94
2017-03-16T06:17:39.393Z,84.59
2017-03-16T06:18:39.379Z,84.12
2017-03-16T06:19:39.369Z,84.5
2017-03-16T06:20:39.355Z,83.69
2017-03-16T06:21:39.343Z,83.22
2017-03-16T06:22:39.031Z,82.27
2017-03-16T06:23:39.320Z,80.79
2017-03-16T06:24:39.311Z,80.41
2017-03-16T06:25:38.997Z,80.03
2017-03-16T06:26:39.289Z,79.27
2017-03-16T06:27:39.280Z,78.83
2017-03-16T06:28:39.271Z,78.17
2017-03-16T06:29:39.258Z,77.07
2017-03-16T06:30:39.249Z,76.12
2017-03-16T06:31:39.240Z,74.22
2017-03-16T06:32:39.232Z,74.07
2017-03-16T06:33:39.238Z,73.49
2017-03-16T06:34:39.214Z,72.16
2017-03-16T06:35:39.205Z,70.77
2017-03-16T06:36:39.200Z,70.2
2017-03-16T06:37:39.193Z,69.85
2017-03-16T06:38:39.184Z,69.19
2017-03-16T06:39:39.177Z,68.43
2017-03-16T06:40:39.167Z,67.8
2017-03-16T06:41:39.163Z,66.75
2017-03-16T06:42:39.156Z,65.36
2017-03-16T06:43:39.152Z,64.12
2017-03-16T06:44:39.142Z,63.39
2017-03-16T06:45:39.137Z,62.34
2017-03-16T06:46:39.131Z,61.7
2017-03-16T06:47:39.126Z,61.6
2017-03-16T06:48:39.123Z,59.6
2017-03-16T06:49:39.116Z,59.73
2017-03-16T06:50:39.111Z,58.68
2017-03-16T06:51:38.801Z,58.8
2017-03-16T06:52:39.101Z,57.65
2017-03-16T06:53:39.098Z,56.45
2017-03-16T06:54:39.094Z,55.49
2017-03-16T06:55:39.090Z,55.4
2017-03-16T06:56:39.088Z,54.37
2017-03-16T06:57:39.084Z,53.89
2017-03-16T06:58:39.083Z,52.65
2017-03-16T06:59:39.081Z,52.29
2017-03-16T07:00:39.073Z,51.81
2017-03-16T07:01:39.071Z,50.76
2017-03-16T07:02:39.072Z,50.86
2017-03-16T07:03:39.077Z,51.24
2017-03-16T07:04:39.067Z,50.76
2017-03-16T07:05:39.061Z,50.76
2017-03-16T07:06:39.058Z,50.86
2017-03-16T07:07:39.055Z,50.45
2017-03-16T07:08:39.063Z,50.64
2017-03-16T07:09:39.050Z,50.64
2017-03-16T07:10:39.045Z,51.03
2017-03-16T07:11:39.044Z,50.26
2017-03-16T07:12:39.043Z,50.16
2017-03-16T07:13:39.038Z,50.62
2017-03-16T07:14:39.034Z,51.29
2017-03-16T07:15:39.031Z,50.81
2017-03-16T07:16:39.029Z,51.48
2017-03-16T07:17:39.035Z,51.57
2017-03-16T07:18:39.024Z,51.76
2017-03-16T07:19:39.021Z,51.76
2017-03-16T07:20:39.018Z,52.05
2017-03-16T07:21:39.017Z,51.86
2017-03-16T07:22:39.013Z,51.89
2017-03-16T07:23:39.013Z,51.21
2017-03-16T07:24:39.008Z,50.09
2017-03-16T07:25:39.008Z,49.62
2017-03-16T07:26:39.005Z,49.16
2017-03-16T07:27:39.003Z,48.11
2017-03-16T07:28:39.005Z,47.92
2017-03-16T07:29:38.998Z,46.96
2017-03-16T07:30:38.998Z,47.16
2017-03-16T07:31:38.994Z,47.44
2017-03-16T07:32:38.995Z,47.06
2017-03-16T07:33:38.995Z,47.34
2017-03-16T07:34:38.988Z,47.44
2017-03-16T07:35:38.984Z,47.53
2017-03-16T07:36:38.982Z,46.96
2017-03-16T07:37:38.981Z,47.63
2017-03-16T07:38:38.980Z,47.44
2017-03-16T07:39:38.976Z,47.44
2017-03-16T07:40:38.973Z,47.53
2017-03-16T07:41:38.670Z,47.63
2017-03-16T07:42:38.976Z,47.53
2017-03-16T07:43:38.966Z,47.53
2017-03-16T07:44:38.961Z,47.73
2017-03-16T07:45:38.960Z,47.63
2017-03-16T07:46:38.956Z,47.34
2017-03-16T07:47:38.953Z,47.16
2017-03-16T07:48:38.957Z,47.03
2017-03-16T07:49:38.946Z,47.03
2017-03-16T07:50:38.943Z,47.61
2017-03-16T07:51:38.941Z,47.61
2017-03-16T07:52:38.937Z,47.99
2017-03-16T07:53:38.935Z,47.61
2017-03-16T07:54:38.935Z,47.8
2017-03-16T07:55:38.928Z,47.89
2017-03-16T07:56:38.924Z,47.71
2017-03-16T07:57:38.918Z,47.89
2017-03-16T07:58:38.917Z,47.71
2017-03-16T07:59:38.914Z,47.78
2017-03-16T08:00:38.909Z,48.18
2017-03-16T08:01:38.907Z,48.93
2017-03-16T08:02:38.902Z,48.93
2017-03-16T08:03:38.898Z,49.3
2017-03-16T08:04:38.893Z,49.49
2017-03-16T08:05:38.889Z,49.88
2017-03-16T08:06:38.887Z,49.69
2017-03-16T08:07:38.884Z,49.4
2017-03-16T08:08:38.879Z,49.3
2017-03-16T08:09:38.874Z,49.3
2017-03-16T08:10:38.870Z,49.11
2017-03-16T08:11:38.868Z,49.49
2017-03-16T08:12:38.862Z,49.4
2017-03-16T08:13:38.556Z,49.52
2017-03-16T08:14:38.864Z,48.83
2017-03-16T08:15:38.547Z,49.3
2017-03-16T08:16:38.847Z,49.49
2017-03-16T08:17:38.846Z,49.59
2017-03-16T08:18:38.840Z,50.16
2017-03-16T08:19:38.835Z,50.07
2017-03-16T08:20:38.834Z,50.35
2017-03-16T08:21:38.828Z,50.64
2017-03-16T08:22:38.826Z,49.98
2017-03-16T08:23:38.819Z,49.88
2017-03-16T08:24:38.814Z,49.88
2017-03-16T08:25:38.814Z,49.59
2017-03-16T08:26:38.808Z,49.78
2017-03-16T08:27:38.804Z,49.69
2017-03-16T08:28:38.801Z,49.52
2017-03-16T08:29:38.799Z,48.95
2017-03-16T08:30:38.794Z,48.95
2017-03-16T08:31:38.791Z,49.14
2017-03-16T08:32:38.787Z,49.04
2017-03-16T08:33:38.785Z,49.07
2017-03-16T08:34:38.788Z,47.92
2017-03-16T08:35:38.776Z,47.44
2017-03-16T08:36:38.772Z,47.16
2017-03-16T08:37:38.768Z,47.06
2017-03-16T08:38:38.764Z,47.37
2017-03-16T08:39:38.458Z,46.7
2017-03-16T08:40:38.456Z,46.7
2017-03-16T08:41:38.450Z,46.51
2017-03-16T08:42:38.449Z,46.22
2017-03-16T08:43:38.749Z,45.74
2017-03-16T08:44:38.747Z,44.98
2017-03-16T08:45:38.742Z,44.71
2017-03-16T08:46:38.436Z,44.5
2017-03-16T08:47:38.432Z,44.23
2017-03-16T08:48:38.730Z,43.92
2017-03-16T08:49:38.729Z,44.31
2017-03-16T08:50:38.423Z,44.59
2017-03-16T08:51:38.419Z,44.79
2017-03-16T08:52:38.415Z,44.59
2017-03-16T08:53:38.715Z,44.5
2017-03-16T08:54:38.409Z,44.59
2017-03-16T08:55:38.713Z,44.69
2017-03-16T08:56:38.406Z,44.69
2017-03-16T08:57:38.704Z,44.21
2017-03-16T08:58:38.701Z,44.59
2017-03-16T08:59:38.394Z,44.5
2017-03-16T09:00:38.391Z,44.31
2017-03-16T09:01:38.388Z,44.02
2017-03-16T09:02:38.690Z,44.02
2017-03-16T09:03:38.684Z,43.83
2017-03-16T09:04:38.682Z,43.73
2017-03-16T09:05:38.678Z,44.02
2017-03-16T09:06:38.675Z,44.21
2017-03-16T09:07:38.673Z,44.59
2017-03-16T09:08:38.668Z,44.59
2017-03-16T09:09:38.363Z,44.5
2017-03-16T09:10:38.662Z,44.59
2017-03-16T09:11:38.659Z,44.5
2017-03-16T09:12:38.656Z,44.33
2017-03-16T09:13:38.655Z,43.95
2017-03-16T09:14:38.650Z,43.27
2017-03-16T09:15:38.649Z,42.8
2017-03-16T09:16:38.644Z,43.08
2017-03-16T09:17:38.642Z,42.8
2017-03-16T09:18:38.638Z,42.7
2017-03-16T09:19:38.636Z,42.99
2017-03-16T09:20:38.633Z,42.44
2017-03-16T09:21:38.630Z,42.34
2017-03-16T09:22:38.625Z,42.82
2017-03-16T09:23:38.625Z,42.91
2017-03-16T09:24:38.621Z,42.34
2017-03-16T09:25:38.618Z,42.34
2017-03-16T09:26:38.616Z,41.48
2017-03-16T09:27:38.612Z,41.48
2017-03-16T09:28:38.305Z,42.05
2017-03-16T09:29:38.606Z,41.96
2017-03-16T09:30:38.605Z,41.96
2017-03-16T09:31:38.603Z,41.77
2017-03-16T09:32:38.599Z,41.77
2017-03-16T09:33:38.596Z,41.77
2017-03-16T09:34:38.596Z,41.48
2017-03-16T09:35:38.590Z,41.28
2017-03-16T09:36:38.587Z,42.03
2017-03-16T09:37:38.585Z,42.41
2017-03-16T09:38:38.583Z,42.8
2017-03-16T09:39:38.582Z,42.82
2017-03-16T09:40:38.274Z,43.01
2017-03-16T09:41:38.576Z,42.82
2017-03-16T09:42:38.571Z,42.63
2017-03-16T09:43:38.568Z,42.63
2017-03-16T09:44:38.568Z,42.44
2017-03-16T09:45:38.565Z,41.48
2017-03-16T09:46:38.562Z,41.19
2017-03-16T09:47:38.558Z,41.57
2017-03-16T09:48:38.555Z,41.77
2017-03-16T09:49:38.555Z,41.6
2017-03-16T09:50:38.555Z,42.07
2017-03-16T09:51:38.549Z,41.88
2017-03-16T09:52:38.548Z,41.31
2017-03-16T09:53:38.556Z,41.31
2017-03-16T09:54:38.568Z,41.4
2017-03-16T09:55:38.540Z,40.83
2017-03-16T09:56:38.538Z,40.92
2017-03-16T09:57:38.534Z,41.02
2017-03-16T09:58:38.531Z,41.11
2017-03-16T09:59:38.530Z,40.92
2017-03-16T10:00:38.529Z,41.23
2017-03-16T10:01:38.525Z,40.94
2017-03-16T10:02:38.522Z,40.94
2017-03-16T10:03:38.520Z,40.84
2017-03-16T10:04:38.518Z,40.66
2017-03-16T10:05:38.515Z,40.94
2017-03-16T10:06:38.515Z,40.94
2017-03-16T10:07:38.512Z,40.94
2017-03-16T10:08:38.509Z,41.13
2017-03-16T10:09:38.507Z,41.31
2017-03-16T10:10:38.506Z,41.9
2017-03-16T10:11:38.504Z,41.69
2017-03-16T10:12:38.500Z,41.6
2017-03-16T10:13:38.497Z,41.69
2017-03-16T10:14:38.495Z,42.07
2017-03-16T10:15:38.494Z,41.78
2017-03-16T10:16:38.187Z,41.97
2017-03-16T10:17:38.489Z,42.17
2017-03-16T10:18:38.487Z,42.46
2017-03-16T10:19:38.483Z,42.84
2017-03-16T10:20:38.480Z,42.84
2017-03-16T10:21:38.480Z,43.13
2017-03-16T10:22:38.172Z,43.13
2017-03-16T10:23:38.473Z,43.32
2017-03-16T10:24:38.470Z,43.49
2017-03-16T10:25:38.469Z,43.77
2017-03-16T10:26:38.466Z,43.97
2017-03-16T10:27:38.461Z,44.06
2017-03-16T10:28:38.460Z,44.16
2017-03-16T10:29:38.457Z,44.45
2017-03-16T10:30:38.455Z,44.54
2017-03-16T10:31:38.453Z,44.73
2017-03-16T10:32:38.450Z,45
2017-03-16T10:33:38.445Z,45.57
2017-03-16T10:34:38.444Z,45.96
2017-03-16T10:35:38.442Z,46.15
2017-03-16T10:36:38.439Z,46.22
2017-03-16T10:37:38.434Z,47.18
2017-03-16T10:38:38.432Z,47.75
2017-03-16T10:39:38.427Z,48.3
2017-03-16T10:40:38.427Z,49.07
2017-03-16T10:41:38.117Z,49.45
2017-03-16T10:42:38.417Z,49.71
2017-03-16T10:43:38.414Z,50.09
2017-03-16T10:44:38.410Z,50.19
2017-03-16T10:45:38.405Z,50.29
2017-03-16T10:46:38.404Z,50
2017-03-16T10:47:38.399Z,50.38
2017-03-16T10:48:38.394Z,50.19
2017-03-16T10:49:38.086Z,50.76
2017-03-16T10:50:38.385Z,51.05
2017-03-16T10:51:38.381Z,50.86
2017-03-16T10:52:38.377Z,51.05
2017-03-16T10:53:38.068Z,51.21
2017-03-16T10:54:38.367Z,51.6
2017-03-16T10:55:38.364Z,52.08
2017-03-16T10:56:38.053Z,52.01
2017-03-16T10:57:38.352Z,51.91
2017-03-16T10:58:38.353Z,52.1
2017-03-16T10:59:38.349Z,51.91
2017-03-16T11:00:38.338Z,51.62
2017-03-16T11:01:38.334Z,51.81
2017-03-16T11:02:38.329Z,51.24
2017-03-16T11:03:38.322Z,51.72
2017-03-16T11:04:38.318Z,51.34
2017-03-16T11:05:38.315Z,51.62
2017-03-16T11:06:38.310Z,51.43
2017-03-16T11:07:38.304Z,51.34
2017-03-16T11:08:38.299Z,51.72
2017-03-16T11:09:38.296Z,51.53
2017-03-16T11:10:38.292Z,51.65
2017-03-16T11:11:38.286Z,51.36
2017-03-16T11:12:38.281Z,51.36
2017-03-16T11:13:38.278Z,51.46
2017-03-16T11:14:38.273Z,51.27
2017-03-16T11:15:38.266Z,50.89
2017-03-16T11:16:38.264Z,50.24
2017-03-16T11:17:38.259Z,50.15
2017-03-16T11:18:37.949Z,50.24
2017-03-16T11:19:38.249Z,50.15
2017-03-16T11:20:38.246Z,49.57
2017-03-16T11:21:38.252Z,49.95
2017-03-16T11:22:38.236Z,49.66
2017-03-16T11:23:38.232Z,49.38
2017-03-16T11:24:38.228Z,48.64
2017-03-16T11:25:38.225Z,48.35
2017-03-16T11:26:38.220Z,48.16
2017-03-16T11:27:38.216Z,47.97
2017-03-16T11:28:38.213Z,48.07
2017-03-16T11:29:38.209Z,48.16
2017-03-16T11:30:38.204Z,47.99
2017-03-16T11:31:38.202Z,47.13
2017-03-16T11:32:38.197Z,47.22
2017-03-16T11:33:38.193Z,47.44
2017-03-16T11:34:38.190Z,46.77
2017-03-16T11:35:38.192Z,46.58
2017-03-16T11:36:38.183Z,46.1
2017-03-16T11:37:38.180Z,46.67
2017-03-16T11:38:38.177Z,46.67
2017-03-16T11:39:38.177Z,45.83
2017-03-16T11:40:38.173Z,44.97
2017-03-16T11:41:38.194Z,44.68
2017-03-16T11:42:38.167Z,44.78
2017-03-16T11:43:38.193Z,44.13
2017-03-16T11:44:38.160Z,43.84
2017-03-16T11:45:38.160Z,43.36
2017-03-16T11:46:38.158Z,43.07
2017-03-16T11:47:38.153Z,43
2017-03-16T11:48:38.152Z,42.61
2017-03-16T11:49:38.352Z,42.71
2017-03-16T11:50:38.399Z,42.52
2017-03-16T11:51:38.146Z,42.13
2017-03-16T11:52:38.144Z,41.67
2017-03-16T11:53:38.143Z,41.77
2017-03-16T11:54:38.165Z,41.96
2017-03-16T11:55:38.390Z,41.2
2017-03-16T11:56:38.137Z,41
2017-03-16T11:57:38.135Z,41.02
2017-03-16T11:58:38.132Z,41
2017-03-16T11:59:38.133Z,40.91
2017-03-16T12:00:38.459Z,40.93
2017-03-16T12:01:37.828Z,40.83
2017-03-16T12:02:38.127Z,41.02
2017-03-16T12:03:38.127Z,40.93
2017-03-16T12:04:38.126Z,40.16
2017-03-16T12:05:38.375Z,40.28
2017-03-16T12:06:38.123Z,39.89
2017-03-16T12:07:38.122Z,39.61
2017-03-16T12:08:38.121Z,39.79
2017-03-16T12:09:38.120Z,39.87
2017-03-16T12:10:37.817Z,39.87
2017-03-16T12:11:38.118Z,39.97
2017-03-16T12:12:38.118Z,39.97
2017-03-16T12:13:38.115Z,40.16
2017-03-16T12:14:38.116Z,40.16
2017-03-16T12:15:38.116Z,40.64
2017-03-16T12:16:38.118Z,40.16
2017-03-16T12:17:38.139Z,40.45
2017-03-16T12:18:38.109Z,40.73
2017-03-16T12:19:38.110Z,39.97
2017-03-16T12:20:38.109Z,40.06
2017-03-16T12:21:38.107Z,40.16
2017-03-16T12:22:38.105Z,40.25
2017-03-16T12:23:38.115Z,39.97
2017-03-16T12:24:38.103Z,40.16
2017-03-16T12:25:38.104Z,40.16
2017-03-16T12:26:37.799Z,40.25
2017-03-16T12:27:38.099Z,40.06
2017-03-16T12:28:38.099Z,40.52
2017-03-16T12:29:38.098Z,40.52
2017-03-16T12:30:38.098Z,40.52
2017-03-16T12:31:38.096Z,40.55
2017-03-16T12:32:38.092Z,40.55
2017-03-16T12:33:38.091Z,40.72
2017-03-16T12:34:38.091Z,40.55
2017-03-16T12:35:38.090Z,40.16
2017-03-16T12:36:38.088Z,41
2017-03-16T12:37:38.087Z,40.52
2017-03-16T12:38:38.085Z,40.55
2017-03-16T12:39:38.084Z,40.62
2017-03-16T12:40:38.082Z,40.72
2017-03-16T12:41:38.082Z,41
2017-03-16T12:42:38.077Z,40.72
2017-03-16T12:43:38.077Z,41
2017-03-16T12:44:38.078Z,41
2017-03-16T12:45:37.769Z,41
2017-03-16T12:46:38.072Z,41
2017-03-16T12:47:38.071Z,40.62
2017-03-16T12:48:38.071Z,41
2017-03-16T12:49:38.070Z,40.81
2017-03-16T12:50:38.066Z,41
2017-03-16T12:51:38.065Z,41
2017-03-16T12:52:38.063Z,40.91
2017-03-16T12:53:38.061Z,41.1
2017-03-16T12:54:38.063Z,40.91
2017-03-16T12:55:38.060Z,41
2017-03-16T12:56:38.061Z,40.91